Time;durP1;ratioP1;P1;durP2;ratioP2;P2;SDS_P1;SDS_P2;PMS_P1;PMS_P2;Temp;Humidity;BMP_temperature;BMP_pressure;BME280_temperature;BME280_humidity;BME280_pressure;Samples;Min_cycle;Max_cycle;Signal;HPM_P1;HPM_P2
2023/12/15 00:01:46;;;;;;;26.52;15.60;;;;;;;16.44;53.13;102799.59;5024297;28;20507;-43
2023/12/15 00:04:12;;;;;;;25.10;16.35;;;;;;;16.44;52.61;102801.38;5025052;28;20092;-43
2023/12/15 00:06:39;;;;;;;21.77;14.40;;;;;;;16.44;52.45;102801.38;5024134;28;20053;-42
2023/12/15 00:09:05;;;;;;;25.95;15.95;;;;;;;16.44;52.79;102806.72;5026391;28;20049;-43
2023/12/15 00:11:32;;;;;;;24.20;14.98;;;;;;;16.44;52.65;102809.41;5025963;28;20192;-43
2023/12/15 00:13:59;;;;;;;24.23;15.18;;;;;;;16.43;52.08;102813.91;5030048;28;20041;-43
2023/12/15 00:16:25;;;;;;;24.60;15.07;;;;;;;16.44;52.48;102820.09;5029188;28;20100;-41
2023/12/15 00:18:52;;;;;;;23.17;15.32;;;;;;;16.43;52.27;102827.28;5030789;28;20185;-42
2023/12/15 00:21:19;;;;;;;25.70;15.40;;;;;;;16.43;52.42;102829.09;5030287;28;20049;-43
2023/12/15 00:23:45;;;;;;;23.73;15.45;;;;;;;16.43;52.52;102827.28;5027902;28;20049;-42
2023/12/15 00:26:12;;;;;;;22.13;14.27;;;;;;;16.42;52.62;102825.56;5022939;28;20395;-42
2023/12/15 00:28:39;;;;;;;27.00;15.80;;;;;;;16.43;52.82;102831.78;5031780;28;20710;-41
2023/12/15 00:31:05;;;;;;;22.77;14.57;;;;;;;16.43;52.51;102832.63;5028143;28;20496;-43
2023/12/15 00:33:32;;;;;;;23.10;14.10;;;;;;;16.42;53.07;102833.59;5022808;28;20129;-40
2023/12/15 00:35:59;;;;;;;24.50;16.15;;;;;;;16.42;52.86;102840.78;5027899;28;20395;-42
2023/12/15 00:38:26;;;;;;;19.38;13.98;;;;;;;16.40;52.47;102843.56;5027768;28;20103;-44
2023/12/15 00:40:53;;;;;;;23.48;14.88;;;;;;;16.41;52.89;102839.91;5027413;28;20134;-43
2023/12/15 00:43:19;;;;;;;21.27;14.50;;;;;;;16.40;52.53;102840.00;5031737;28;20377;-43
2023/12/15 00:45:46;;;;;;;22.80;14.65;;;;;;;16.40;52.79;102831.97;5024991;28;20061;-44
2023/12/15 00:48:12;;;;;;;23.70;14.77;;;;;;;16.39;53.52;102830.25;5026228;28;20076;-43
2023/12/15 00:50:39;;;;;;;24.63;15.10;;;;;;;16.39;52.66;102831.09;5026977;28;20071;-43
2023/12/15 00:53:06;;;;;;;20.45;14.00;;;;;;;16.39;53.23;102840.94;5028876;28;20323;-42
2023/12/15 00:55:32;;;;;;;22.52;14.75;;;;;;;16.38;52.62;102850.81;5031134;28;20056;-43
2023/12/15 00:57:59;;;;;;;21.25;14.30;;;;;;;16.40;53.11;102848.03;5027220;28;20045;-43
2023/12/15 01:00:25;;;;;;;21.83;13.55;;;;;;;16.38;52.32;102856.16;5033045;28;20053;-42
2023/12/15 01:02:52;;;;;;;23.75;13.52;;;;;;;16.38;52.63;102849.94;5029835;28;20129;-43
2023/12/15 01:05:19;;;;;;;22.02;13.88;;;;;;;16.38;52.83;102857.97;5022467;28;20099;-43
2023/12/15 01:07:45;;;;;;;21.05;14.10;;;;;;;16.38;53.32;102860.66;5029930;28;20057;-43
2023/12/15 01:10:15;;;;;;;21.60;13.63;;;;;;;16.38;52.55;102863.31;5026716;28;20108;-43
2023/12/15 01:12:41;;;;;;;21.98;14.65;;;;;;;16.38;52.54;102871.34;5028527;28;20112;-42
2023/12/15 01:15:08;;;;;;;21.23;14.00;;;;;;;16.38;53.19;102872.22;5025793;28;20102;-43
2023/12/15 01:17:35;;;;;;;20.77;13.20;;;;;;;16.37;52.69;102866.97;5023061;28;20045;-43
2023/12/15 01:20:02;;;;;;;20.25;13.85;;;;;;;16.37;52.31;102859.78;5029438;28;20049;-43
2023/12/15 01:22:29;;;;;;;20.83;12.55;;;;;;;16.37;52.76;102856.25;5030229;28;20046;-43
2023/12/15 01:24:56;;;;;;;19.70;12.52;;;;;;;16.36;53.06;102865.22;5029670;28;20128;-42
2023/12/15 01:27:23;;;;;;;21.58;14.07;;;;;;;16.35;52.71;102866.19;5030779;28;20456;-41
2023/12/15 01:29:49;;;;;;;21.60;13.18;;;;;;;16.35;53.40;102872.38;5029613;28;20095;-42
2023/12/15 01:32:16;;;;;;;18.35;12.85;;;;;;;16.36;52.85;102871.47;5023831;28;20129;-43
2023/12/15 01:34:43;;;;;;;19.90;13.23;;;;;;;16.35;53.36;102867.03;5019462;28;20533;-42
2023/12/15 01:37:09;;;;;;;19.80;12.48;;;;;;;16.35;52.89;102866.19;5020814;28;20473;-42
2023/12/15 01:39:36;;;;;;;20.30;13.23;;;;;;;16.36;53.53;102868.78;5018889;28;20131;-43
2023/12/15 01:42:02;;;;;;;20.30;12.95;;;;;;;16.41;52.85;102868.50;5026635;28;20136;-41
2023/12/15 01:44:29;;;;;;;20.83;14.18;;;;;;;16.48;52.66;102877.84;5023671;28;20081;-43
2023/12/15 01:46:56;;;;;;;19.40;13.48;;;;;;;16.57;52.94;102889.84;5036029;28;20049;-41
2023/12/15 01:49:23;;;;;;;21.05;12.40;;;;;;;16.64;52.74;102893.84;5029756;28;20380;-42
2023/12/15 01:51:50;;;;;;;18.50;12.27;;;;;;;16.70;52.34;102893.47;5030492;28;20076;-43
2023/12/15 01:54:16;;;;;;;18.63;12.18;;;;;;;16.75;51.98;102902.97;5028405;28;20045;-41
2023/12/15 01:56:44;;;;;;;18.95;12.02;;;;;;;16.80;52.61;102909.84;5030616;28;20133;-43
2023/12/15 01:59:11;;;;;;;18.55;12.32;;;;;;;16.85;51.72;102913.13;5026691;28;20107;-42
2023/12/15 02:01:38;;;;;;;18.60;12.15;;;;;;;16.88;52.25;102927.16;5027416;28;20053;-43
2023/12/15 02:04:05;;;;;;;18.30;12.10;;;;;;;16.92;51.94;102928.69;5027197;28;20053;-44
2023/12/15 02:06:31;;;;;;;16.48;11.77;;;;;;;16.93;52.39;102914.38;5026035;28;20056;-41
2023/12/15 02:08:58;;;;;;;19.73;11.85;;;;;;;16.97;51.45;102921.25;5026770;28;20456;-43
2023/12/15 02:11:24;;;;;;;18.38;11.95;;;;;;;16.99;52.36;102934.53;5024573;28;20147;-39
2023/12/15 02:13:51;;;;;;;18.50;11.75;;;;;;;17.01;52.09;102940.69;5030587;28;20059;-43
2023/12/15 02:16:18;;;;;;;17.63;11.57;;;;;;;17.02;51.50;102940.56;5029040;28;20337;-38
2023/12/15 02:18:44;;;;;;;16.75;11.35;;;;;;;17.04;51.70;102951.19;5027666;28;20049;-38
2023/12/15 02:21:11;;;;;;;16.00;11.32;;;;;;;17.06;52.19;102954.63;5035093;28;20058;-40
2023/12/15 02:23:38;;;;;;;17.23;11.10;;;;;;;17.08;52.03;102946.50;5033408;28;20418;-40
2023/12/15 02:26:05;;;;;;;17.92;11.20;;;;;;;17.10;51.80;102949.97;5029989;28;20045;-38
2023/12/15 02:28:31;;;;;;;16.80;10.73;;;;;;;17.10;51.77;102958.84;5034596;28;20103;-40
2023/12/15 02:30:58;;;;;;;15.80;11.63;;;;;;;17.11;51.78;102960.56;5030744;28;20050;-39
2023/12/15 02:33:24;;;;;;;16.77;11.05;;;;;;;17.11;51.56;102963.25;5030748;28;20136;-41
2023/12/15 02:35:51;;;;;;;18.02;11.38;;;;;;;17.12;51.44;102956.06;5030008;28;20064;-38
2023/12/15 02:38:18;;;;;;;16.08;10.57;;;;;;;17.13;51.24;102960.50;5026585;28;20077;-42
2023/12/15 02:40:45;;;;;;;15.45;10.85;;;;;;;17.14;51.29;102967.56;5028507;28;20141;-38
2023/12/15 02:43:12;;;;;;;16.88;11.02;;;;;;;17.13;51.68;102965.84;5035694;28;20130;-41
2023/12/15 02:45:38;;;;;;;14.75;10.38;;;;;;;17.14;51.79;102967.56;5027293;28;20187;-43
2023/12/15 02:48:05;;;;;;;14.38;10.13;;;;;;;17.15;51.78;102964.78;5026152;28;20073;-43
2023/12/15 02:50:32;;;;;;;15.75;10.30;;;;;;;17.18;51.52;102969.94;5028919;28;20082;-42
2023/12/15 02:52:59;;;;;;;14.75;9.65;;;;;;;17.22;51.55;102978.66;5032468;28;20738;-42
2023/12/15 02:55:25;;;;;;;15.60;10.82;;;;;;;17.25;51.70;102987.38;5028267;28;20061;-40
2023/12/15 02:57:52;;;;;;;14.82;10.43;;;;;;;17.27;52.05;102974.72;5014252;28;20959;-38
2023/12/15 03:00:19;;;;;;;16.55;9.82;;;;;;;17.33;51.54;102978.00;5027878;28;20396;-41
2023/12/15 03:02:45;;;;;;;14.15;10.00;;;;;;;17.35;51.30;102987.66;5033866;28;20136;-40
2023/12/15 03:05:12;;;;;;;16.55;10.75;;;;;;;17.35;51.13;102987.66;5030100;28;20072;-42
2023/12/15 03:07:38;;;;;;;17.42;10.57;;;;;;;17.35;51.83;102994.81;5029770;28;20129;-42
2023/12/15 03:10:06;;;;;;;14.68;9.68;;;;;;;17.34;51.52;103002.00;5028126;28;20060;-40
2023/12/15 03:12:32;;;;;;;14.75;10.25;;;;;;;17.35;51.61;103002.88;5025160;28;20053;-40
2023/12/15 03:14:59;;;;;;;14.48;9.88;;;;;;;17.34;51.50;103001.16;5021675;28;20438;-40
2023/12/15 03:17:25;;;;;;;14.88;10.10;;;;;;;17.33;51.30;103000.28;5030073;28;20180;-40
2023/12/15 03:19:52;;;;;;;18.10;10.73;;;;;;;17.31;51.49;103002.19;5027169;28;20053;-42
2023/12/15 03:22:19;;;;;;;15.43;8.88;;;;;;;17.31;51.04;103002.19;5029092;28;20154;-41
2023/12/15 03:24:46;;;;;;;15.82;10.15;;;;;;;17.33;51.62;103016.38;5026805;28;20050;-42
2023/12/15 03:27:12;;;;;;;14.32;9.73;;;;;;;17.32;51.69;103019.13;5029940;28;20521;-40
2023/12/15 03:29:39;;;;;;;13.05;9.55;;;;;;;17.30;51.36;103026.44;5031103;28;20445;-40
2023/12/15 03:32:06;;;;;;;13.32;9.32;;;;;;;17.29;51.32;103025.56;5037480;28;20049;-39
2023/12/15 03:34:32;;;;;;;14.30;9.25;;;;;;;17.29;51.61;103030.94;5035641;28;20092;-38
2023/12/15 03:36:59;;;;;;;12.18;8.77;;;;;;;17.30;51.52;103031.78;5024166;28;20053;-42
2023/12/15 03:39:26;;;;;;;12.60;8.95;;;;;;;17.29;51.48;103025.56;5027239;28;20045;-42
2023/12/15 03:41:52;;;;;;;12.38;8.63;;;;;;;17.28;51.33;103022.00;5027416;28;20438;-40
2023/12/15 03:44:19;;;;;;;13.55;9.20;;;;;;;17.28;51.68;103024.69;5028135;28;20042;-39
2023/12/15 03:46:45;;;;;;;14.05;9.20;;;;;;;17.28;51.37;103035.41;5025618;28;20135;-38
2023/12/15 03:49:12;;;;;;;12.70;7.82;;;;;;;17.28;51.56;103030.03;5026117;28;20049;-39
2023/12/15 03:51:39;;;;;;;13.57;8.57;;;;;;;17.27;51.40;103033.69;5027963;28;20132;-42
2023/12/15 03:54:05;;;;;;;12.85;8.75;;;;;;;17.28;51.62;103035.41;5031353;28;20410;-41
2023/12/15 03:56:32;;;;;;;12.60;8.15;;;;;;;17.32;51.21;103032.53;5033159;28;20057;-38
2023/12/15 03:59:00;;;;;;;11.93;9.13;;;;;;;17.36;51.29;103039.44;5025844;28;20425;-39
2023/12/15 04:01:27;;;;;;;11.20;8.40;;;;;;;17.40;50.99;103046.31;5025438;28;20148;-42
2023/12/15 04:03:54;;;;;;;11.63;7.80;;;;;;;17.44;51.38;103045.16;5032993;28;20487;-38
2023/12/15 04:06:20;;;;;;;11.73;7.75;;;;;;;17.46;51.32;103052.19;5030498;28;20128;-38
2023/12/15 04:08:47;;;;;;;11.32;7.03;;;;;;;17.50;51.21;103063.56;5020796;28;20053;-38
2023/12/15 04:11:16;;;;;;;10.65;7.70;;;;;;;17.54;50.98;103061.56;5026176;28;20050;-38
2023/12/15 04:13:43;;;;;;;10.18;7.72;;;;;;;17.57;51.34;103056.88;5025805;28;20119;-41
2023/12/15 04:16:10;;;;;;;10.70;7.45;;;;;;;17.59;51.21;103054.94;5028408;28;20121;-41
2023/12/15 04:18:37;;;;;;;11.52;7.80;;;;;;;17.59;51.01;103065.66;5024755;28;20081;-43
2023/12/15 04:21:04;;;;;;;12.82;8.38;;;;;;;17.57;51.03;103067.59;5029398;28;20055;-42
2023/12/15 04:23:31;;;;;;;9.40;6.85;;;;;;;17.56;50.87;103070.34;5025928;28;20432;-42
2023/12/15 04:25:58;;;;;;;10.27;7.20;;;;;;;17.53;51.10;103060.72;5028105;28;20596;-42
2023/12/15 04:28:25;;;;;;;10.57;7.05;;;;;;;17.50;51.33;103050.16;5023449;28;20085;-42
2023/12/15 04:30:52;;;;;;;9.55;7.10;;;;;;;17.49;51.43;103061.84;5026095;28;20098;-41
2023/12/15 04:33:19;;;;;;;10.23;7.35;;;;;;;17.48;51.33;103055.59;5026069;28;20045;-42
2023/12/15 04:35:46;;;;;;;9.70;7.15;;;;;;;17.46;51.35;103070.09;5028921;28;20046;-40
2023/12/15 04:38:12;;;;;;;10.30;6.70;;;;;;;17.44;51.38;103072.84;5023205;28;20049;-42
2023/12/15 04:40:39;;;;;;;10.95;7.10;;;;;;;17.43;51.28;103075.63;5026455;28;20513;-41
2023/12/15 04:43:05;;;;;;;10.38;6.88;;;;;;;17.41;51.92;103065.00;5029788;28;20464;-38
2023/12/15 04:45:32;;;;;;;12.25;7.45;;;;;;;17.39;51.38;103074.94;5027885;28;20115;-42
2023/12/15 04:47:59;;;;;;;10.15;7.10;;;;;;;17.39;51.64;103084.81;5026223;28;20057;-41
2023/12/15 04:50:25;;;;;;;11.25;6.72;;;;;;;17.36;51.46;103080.50;5022950;28;20094;-40
2023/12/15 04:52:52;;;;;;;11.15;7.05;;;;;;;17.36;51.40;103085.84;5019145;28;20049;-41
2023/12/15 04:55:19;;;;;;;7.88;5.70;;;;;;;17.33;51.72;103083.38;5021193;28;20104;-41
2023/12/15 04:57:45;;;;;;;10.73;6.45;;;;;;;17.33;51.90;103093.25;5025522;28;20077;-43
2023/12/15 05:00:15;;;;;;;7.80;5.75;;;;;;;17.28;51.99;103097.03;5025139;28;20445;-43
2023/12/15 05:02:42;;;;;;;10.48;6.50;;;;;;;17.27;51.52;103107.88;5026052;28;20054;-43
2023/12/15 05:05:09;;;;;;;9.45;6.68;;;;;;;17.23;51.55;103109.88;5029279;28;20120;-41
2023/12/15 05:07:35;;;;;;;11.23;6.57;;;;;;;17.20;51.94;103102.00;5025819;28;20056;-43
2023/12/15 05:10:03;;;;;;;8.95;6.50;;;;;;;17.15;51.67;103106.78;5028404;28;20345;-43
2023/12/15 05:12:34;;;;;;;9.73;6.53;;;;;;;17.10;52.15;103114.25;5024222;28;20049;-43
2023/12/15 05:15:01;;;;;;;8.45;5.85;;;;;;;17.06;52.43;103117.22;5015494;28;20041;-43
2023/12/15 05:17:29;;;;;;;8.00;5.65;;;;;;;17.00;52.60;103123.78;5019569;28;20410;-43
2023/12/15 05:19:55;;;;;;;9.55;5.72;;;;;;;16.95;52.56;103131.25;5027450;28;20045;-43
2023/12/15 05:22:22;;;;;;;9.10;6.22;;;;;;;16.89;53.00;103140.50;5024015;28;20060;-43
2023/12/15 05:24:51;;;;;;;10.10;5.75;;;;;;;16.84;52.42;103139.03;5022965;28;20080;-42
2023/12/15 05:27:18;;;;;;;8.52;6.28;;;;;;;16.79;53.29;103139.31;5022169;28;20045;-43
2023/12/15 05:29:47;;;;;;;11.07;5.80;;;;;;;16.81;52.79;103141.91;5024318;28;20087;-42
2023/12/15 05:32:14;;;;;;;9.77;5.75;;;;;;;16.85;52.94;103148.81;5027226;28;20083;-43
2023/12/15 05:34:42;;;;;;;7.00;5.40;;;;;;;16.90;53.03;103150.28;5017492;28;20042;-43
2023/12/15 05:37:09;;;;;;;7.95;6.15;;;;;;;16.96;52.67;103147.22;5019850;28;20104;-42
2023/12/15 05:39:36;;;;;;;8.50;5.60;;;;;;;16.99;52.57;103138.13;5026791;28;20384;-43
2023/12/15 05:42:03;;;;;;;9.40;5.53;;;;;;;17.03;52.90;103126.28;5025780;28;20102;-44
2023/12/15 05:44:29;;;;;;;8.75;5.93;;;;;;;17.06;52.87;103131.47;5026998;28;20088;-43
2023/12/15 05:46:56;;;;;;;9.30;5.22;;;;;;;17.08;52.25;103134.91;5028827;28;20065;-42
2023/12/15 05:49:23;;;;;;;7.55;5.10;;;;;;;17.11;52.70;103131.19;5027703;28;20103;-43
2023/12/15 05:51:49;;;;;;;9.20;5.40;;;;;;;17.12;51.88;103133.78;5026587;28;20041;-43
2023/12/15 05:54:16;;;;;;;8.10;5.07;;;;;;;17.14;52.22;103139.91;5028554;28;20049;-41
2023/12/15 05:56:42;;;;;;;7.25;5.20;;;;;;;17.16;52.29;103153.22;5025853;28;20154;-43
2023/12/15 05:59:09;;;;;;;8.15;5.15;;;;;;;17.16;52.45;103151.38;5028861;28;20052;-43
2023/12/15 06:01:36;;;;;;;8.57;5.32;;;;;;;17.18;52.33;103162.03;5026352;28;20041;-43
2023/12/15 06:04:02;;;;;;;8.13;5.07;;;;;;;17.19;52.28;103166.44;5033277;28;20048;-40
2023/12/15 06:06:29;;;;;;;7.45;5.00;;;;;;;17.20;52.06;103160.97;5030108;28;20367;-41
2023/12/15 06:08:55;;;;;;;6.78;4.65;;;;;;;17.20;52.10;103160.13;5029453;28;20573;-40
2023/12/15 06:11:23;;;;;;;7.43;5.15;;;;;;;17.21;52.68;103172.59;5028786;28;20062;-38
2023/12/15 06:13:50;;;;;;;7.70;4.88;;;;;;;17.21;51.98;103162.72;5020392;28;20072;-42
2023/12/15 06:16:20;;;;;;;9.68;5.53;;;;;;;17.22;52.30;103161.75;5026044;28;20053;-41
2023/12/15 06:18:47;;;;;;;9.57;4.90;;;;;;;17.23;51.87;103159.94;5032989;28;20056;-39
2023/12/15 06:21:25;;;;;;;8.05;4.75;;;;;;;17.22;52.26;103176.97;5032820;28;20096;-39
2023/12/15 06:23:53;;;;;;;7.40;4.68;;;;;;;17.23;52.16;103184.91;5034460;28;20140;-38
2023/12/15 06:26:26;;;;;;;9.35;5.53;;;;;;;17.23;51.67;103187.59;5024844;28;20045;-41
2023/12/15 06:28:53;;;;;;;8.63;4.97;;;;;;;17.22;51.96;103188.56;5027112;28;20061;-40
2023/12/15 06:31:20;;;;;;;8.70;5.03;;;;;;;17.23;52.25;103192.09;5033582;28;20433;-39
2023/12/15 06:33:47;;;;;;;7.93;4.68;;;;;;;17.22;52.12;103190.38;5030071;28;20146;-43
2023/12/15 06:36:14;;;;;;;9.32;5.13;;;;;;;17.18;52.09;103187.00;5026282;28;20042;-43
2023/12/15 06:38:44;;;;;;;8.07;4.80;;;;;;;17.20;52.28;103187.78;5024261;28;20133;-43
2023/12/15 06:41:12;;;;;;;9.27;4.85;;;;;;;17.24;52.09;103196.50;5030686;28;20045;-43
2023/12/15 06:43:40;;;;;;;9.50;5.78;;;;;;;17.28;52.01;103206.06;5029142;28;20057;-43
2023/12/15 06:46:07;;;;;;;9.75;5.20;;;;;;;17.36;51.84;103213.66;5030104;28;20111;-41
2023/12/15 06:48:34;;;;;;;11.57;5.65;;;;;;;17.41;51.75;103217.81;5030389;28;21092;-40
2023/12/15 06:51:01;;;;;;;8.65;5.72;;;;;;;17.47;51.73;103217.44;5031946;28;20053;-42
2023/12/15 06:53:28;;;;;;;10.43;6.32;;;;;;;17.51;51.65;103234.22;5022149;28;20072;-40
2023/12/15 06:55:55;;;;;;;10.93;6.05;;;;;;;17.53;51.76;103237.69;5026099;28;20054;-42
2023/12/15 06:58:22;;;;;;;11.88;6.80;;;;;;;17.51;51.79;103239.56;5031065;28;20080;-38
2023/12/15 07:00:48;;;;;;;13.20;6.90;;;;;;;17.50;51.78;103237.84;5029458;28;20136;-36
2023/12/15 07:03:15;;;;;;;12.88;7.30;;;;;;;17.47;51.75;103228.16;5027788;28;20056;-38
2023/12/15 07:05:42;;;;;;;15.63;8.13;;;;;;;17.47;51.75;103232.66;5030696;28;20129;-37
2023/12/15 07:08:09;;;;;;;10.00;6.68;;;;;;;17.45;51.76;103240.81;5031881;28;20385;-37
2023/12/15 07:10:35;;;;;;;10.32;7.00;;;;;;;17.44;51.87;103243.56;5024093;28;20054;-39
2023/12/15 07:13:02;;;;;;;14.27;7.22;;;;;;;17.42;51.66;103232.09;5031540;28;20161;-38
2023/12/15 07:15:29;;;;;;;12.23;7.10;;;;;;;17.40;51.70;103231.28;5027543;28;20046;-37
2023/12/15 07:17:56;;;;;;;14.25;7.45;;;;;;;17.39;51.58;103232.25;5018774;28;20049;-38
2023/12/15 07:20:24;;;;;;;14.43;8.15;;;;;;;17.37;51.90;103243.09;5023018;28;20224;-39
2023/12/15 07:22:51;;;;;;;11.63;7.40;;;;;;;17.37;51.48;103253.81;5018821;28;20049;-38
2023/12/15 07:25:18;;;;;;;16.02;7.88;;;;;;;17.35;52.06;103257.53;5028458;28;20126;-41
2023/12/15 07:27:45;;;;;;;12.07;7.78;;;;;;;17.35;51.44;103249.47;5023482;28;20303;-42
2023/12/15 07:30:12;;;;;;;14.27;7.63;;;;;;;17.32;51.51;103255.88;5024653;28;20049;-42
2023/12/15 07:32:38;;;;;;;14.43;8.00;;;;;;;17.29;52.24;103258.75;5027025;28;20106;-41
2023/12/15 07:35:06;;;;;;;12.05;7.82;;;;;;;17.26;52.03;103270.50;5027287;28;20041;-42
2023/12/15 07:37:51;;;;;;;10.77;7.20;;;;;;;17.23;51.82;103276.03;5028120;28;20155;-42
2023/12/15 07:40:18;;;;;;;11.27;7.75;;;;;;;17.16;52.08;103266.63;5027222;28;20053;-42
2023/12/15 07:42:44;;;;;;;13.73;8.38;;;;;;;17.12;52.08;103275.78;5025030;28;20758;-42
2023/12/15 07:45:12;;;;;;;14.70;7.47;;;;;;;17.08;51.92;103290.31;5028411;28;20500;-42
2023/12/15 07:47:39;;;;;;;15.32;8.32;;;;;;;17.03;51.98;103295.09;5020183;28;20453;-41
2023/12/15 07:50:06;;;;;;;14.43;8.75;;;;;;;16.98;52.53;103290.00;5026564;28;20050;-42
2023/12/15 07:52:33;;;;;;;12.50;7.32;;;;;;;16.94;52.55;103298.28;5028741;28;20045;-42
2023/12/15 07:54:59;;;;;;;14.82;8.48;;;;;;;16.89;52.65;103309.28;5025375;28;20057;-41
2023/12/15 07:57:26;;;;;;;11.27;7.97;;;;;;;16.85;53.15;103315.75;5022465;28;20057;-41
2023/12/15 07:59:53;;;;;;;14.75;8.85;;;;;;;16.80;52.40;103306.22;5026467;28;20148;-42
2023/12/15 08:02:21;;;;;;;15.77;8.88;;;;;;;16.78;53.44;103317.88;5030009;28;20077;-42
2023/12/15 08:04:48;;;;;;;16.10;9.07;;;;;;;16.76;52.71;103317.13;5029703;28;20046;-42
2023/12/15 08:07:14;;;;;;;15.50;8.77;;;;;;;16.77;52.65;103323.34;5025100;28;20061;-42
2023/12/15 08:09:41;;;;;;;14.20;8.68;;;;;;;16.75;52.71;103325.22;5025731;28;20508;-43
2023/12/15 08:12:08;;;;;;;15.38;9.05;;;;;;;16.74;53.61;103335.09;5023702;28;20089;-43
2023/12/15 08:14:34;;;;;;;16.52;8.88;;;;;;;16.79;53.40;103334.81;5023854;28;20045;-43
2023/12/15 08:17:01;;;;;;;14.15;9.00;;;;;;;16.87;52.59;103342.44;5026621;28;20053;-40
2023/12/15 08:19:31;;;;;;;15.10;9.30;;;;;;;16.92;53.12;103359.09;5028135;28;20095;-43
2023/12/15 08:21:59;;;;;;;14.00;9.23;;;;;;;17.00;52.76;103364.91;5030775;28;20045;-42
2023/12/15 08:24:27;;;;;;;14.75;8.82;;;;;;;17.05;52.81;103354.81;5025241;28;20492;-40
2023/12/15 08:26:53;;;;;;;16.20;9.35;;;;;;;17.10;52.67;103357.25;5023990;28;20045;-43
2023/12/15 08:29:21;;;;;;;13.35;8.60;;;;;;;17.14;53.01;103362.34;5026710;28;20046;-43
2023/12/15 08:31:49;;;;;;;15.40;9.48;;;;;;;17.18;52.81;103369.25;5018235;28;20061;-40
2023/12/15 08:34:16;;;;;;;14.82;9.05;;;;;;;17.24;51.88;103376.06;5018500;28;20134;-42
2023/12/15 08:36:45;;;;;;;17.48;10.05;;;;;;;17.26;52.24;103369.69;5021140;28;20127;-38
2023/12/15 08:39:12;;;;;;;15.95;10.00;;;;;;;17.31;52.18;103376.59;5026409;28;20099;-40
2023/12/15 08:41:43;;;;;;;17.15;9.75;;;;;;;17.34;52.40;103377.28;5023645;28;20085;-37
2023/12/15 08:44:10;;;;;;;17.88;10.95;;;;;;;17.37;52.18;103381.63;5021859;28;20055;-42
2023/12/15 08:46:50;;;;;;;12.70;9.23;;;;;;;17.38;51.85;103383.34;5025310;28;20103;-40
2023/12/15 08:49:16;;;;;;;15.35;9.73;;;;;;;17.40;52.10;103386.78;5023880;28;20103;-39
2023/12/15 08:51:44;;;;;;;16.83;10.18;;;;;;;17.40;52.04;103386.78;5026036;28;20563;-39
2023/12/15 08:54:10;;;;;;;16.42;10.05;;;;;;;17.40;52.22;103393.00;5030806;28;20053;-40
2023/12/15 08:56:41;;;;;;;14.48;9.35;;;;;;;17.39;52.24;103396.66;5019667;28;20060;-41
2023/12/15 08:59:08;;;;;;;16.25;9.95;;;;;;;17.40;52.09;103398.38;5024228;28;20041;-41
2023/12/15 09:01:35;;;;;;;15.75;10.30;;;;;;;17.40;51.96;103409.09;5025039;28;20061;-41
2023/12/15 09:04:01;;;;;;;15.15;9.57;;;;;;;17.40;51.84;103410.91;5024278;28;20146;-39
2023/12/15 09:06:28;;;;;;;14.10;9.43;;;;;;;17.40;51.74;103418.97;5037035;28;20084;-40
2023/12/15 09:09:02;;;;;;;15.60;10.10;;;;;;;17.39;51.78;103417.25;5024176;28;20064;-43
2023/12/15 09:11:29;;;;;;;16.45;10.25;;;;;;;17.39;51.82;103420.78;5023659;28;20054;-41
2023/12/15 09:13:56;;;;;;;17.98;11.25;;;;;;;17.40;51.92;103427.00;5025871;28;20148;-41
2023/12/15 09:16:23;;;;;;;16.10;10.60;;;;;;;17.39;52.15;103426.16;5025507;28;20081;-43
2023/12/15 09:18:50;;;;;;;16.30;9.75;;;;;;;17.41;51.93;103434.13;5026335;28;20085;-42
2023/12/15 09:21:17;;;;;;;15.35;9.70;;;;;;;17.40;52.25;103435.03;5032805;28;20055;-41
2023/12/15 09:23:43;;;;;;;16.63;10.15;;;;;;;17.40;52.21;103451.13;5026527;28;20076;-38
2023/12/15 09:26:10;;;;;;;15.75;10.15;;;;;;;17.40;52.14;103454.69;5016050;28;20049;-41
2023/12/15 09:28:36;;;;;;;14.40;8.82;;;;;;;17.40;51.73;103459.19;5023666;28;20049;-40
2023/12/15 09:31:03;;;;;;;14.77;9.93;;;;;;;17.40;51.99;103473.44;5025279;28;20400;-41
2023/12/15 09:33:30;;;;;;;17.05;10.75;;;;;;;17.40;52.05;103484.16;5024638;28;20100;-40
2023/12/15 09:35:57;;;;;;;17.52;10.80;;;;;;;17.40;51.87;103484.16;5025117;28;20077;-41
2023/12/15 09:38:23;;;;;;;16.85;9.90;;;;;;;17.40;52.24;103483.31;5022847;28;20128;-37
2023/12/15 09:40:50;;;;;;;18.25;10.32;;;;;;;17.41;52.54;103487.75;5025528;28;20053;-42
2023/12/15 09:43:17;;;;;;;16.05;10.40;;;;;;;17.40;51.83;103478.81;5023656;28;20054;-42
2023/12/15 09:45:45;;;;;;;15.45;10.10;;;;;;;17.41;52.00;103493.09;5017157;28;20497;-39
2023/12/15 09:48:14;;;;;;;15.93;10.00;;;;;;;17.41;52.24;103487.75;5019893;28;20327;-42
2023/12/15 09:50:50;;;;;;;17.27;10.80;;;;;;;17.41;52.20;103502.00;5025191;28;20050;-41
2023/12/15 09:53:18;;;;;;;17.05;10.82;;;;;;;17.41;51.80;103502.00;5029539;28;20048;-42
2023/12/15 09:55:45;;;;;;;18.02;10.98;;;;;;;17.41;52.28;103490.41;5024530;28;20128;-40
2023/12/15 09:58:12;;;;;;;16.27;10.13;;;;;;;17.42;52.31;103502.88;5012465;28;20053;-42
2023/12/15 10:00:39;;;;;;;15.57;9.90;;;;;;;17.41;52.09;103507.38;5017168;28;20054;-41
2023/12/15 10:03:05;;;;;;;18.58;9.95;;;;;;;17.43;52.18;103526.03;5025770;28;20054;-39
2023/12/15 10:05:33;;;;;;;15.65;9.85;;;;;;;17.42;52.36;103533.22;5021415;28;20376;-39
2023/12/15 10:08:00;;;;;;;16.35;10.23;;;;;;;17.44;51.97;103551.91;5025596;28;20089;-39
2023/12/15 10:10:27;;;;;;;14.57;9.13;;;;;;;17.43;52.06;103548.34;5023479;28;20350;-42
2023/12/15 10:12:56;;;;;;;16.38;10.80;;;;;;;17.43;52.14;103548.34;5020712;28;20099;-39
2023/12/15 10:15:23;;;;;;;15.52;10.23;;;;;;;17.44;52.13;103551.91;5023388;28;20081;-39
2023/12/15 10:17:54;;;;;;;15.70;9.63;;;;;;;17.44;52.08;103549.22;5022730;28;20049;-40
2023/12/15 10:20:21;;;;;;;13.90;9.73;;;;;;;17.43;51.66;103560.91;5026954;28;20062;-44
2023/12/15 10:22:48;;;;;;;19.25;10.68;;;;;;;17.41;51.88;103562.81;5024971;28;20072;-43
2023/12/15 10:25:19;;;;;;;14.05;9.13;;;;;;;17.40;52.20;103569.09;5026373;28;20044;-42
2023/12/15 10:27:48;;;;;;;14.20;9.27;;;;;;;17.34;52.17;103556.03;5017700;28;20392;-42
2023/12/15 10:30:19;;;;;;;16.77;10.23;;;;;;;17.33;52.23;103557.84;5028667;28;20355;-44
2023/12/15 10:32:46;;;;;;;14.73;9.63;;;;;;;17.40;52.27;103561.91;5027915;28;20128;-38
2023/12/15 10:35:13;;;;;;;17.02;10.27;;;;;;;17.48;51.95;103566.88;5023603;28;20093;-39
2023/12/15 10:37:41;;;;;;;13.57;8.95;;;;;;;17.55;52.07;103567.41;5024316;28;20103;-39
2023/12/15 10:40:09;;;;;;;15.70;9.45;;;;;;;17.61;51.91;103572.41;5024799;28;20160;-39
2023/12/15 10:42:37;;;;;;;16.92;9.52;;;;;;;17.69;51.91;103580.94;5025424;28;20080;-39
2023/12/15 10:45:05;;;;;;;13.57;9.25;;;;;;;17.75;51.34;103588.66;5024479;28;20089;-40
2023/12/15 10:47:33;;;;;;;14.95;9.25;;;;;;;17.80;51.65;103589.28;5027925;28;20498;-43
2023/12/15 10:50:01;;;;;;;14.80;8.88;;;;;;;17.84;51.37;103596.19;5027269;28;20433;-40
2023/12/15 10:52:32;;;;;;;14.60;8.70;;;;;;;17.89;51.51;103593.25;5030932;28;20588;-39
2023/12/15 10:55:00;;;;;;;13.77;8.88;;;;;;;17.93;51.19;103601.06;5034931;28;20061;-40
2023/12/15 10:57:26;;;;;;;17.77;10.07;;;;;;;17.96;51.50;103605.38;5031132;28;20116;-42
2023/12/15 10:59:54;;;;;;;13.70;8.85;;;;;;;17.97;51.22;103608.00;5024105;28;20049;-43
2023/12/15 11:02:23;;;;;;;17.35;9.73;;;;;;;17.99;51.43;103616.81;5018745;28;20058;-40
2023/12/15 11:04:51;;;;;;;13.52;8.90;;;;;;;17.99;51.31;103599.84;5022650;28;20045;-42
2023/12/15 11:07:22;;;;;;;13.95;9.07;;;;;;;18.02;50.91;103604.19;5021917;28;20046;-38
2023/12/15 11:09:49;;;;;;;15.43;9.50;;;;;;;18.02;51.14;103597.00;5020951;28;20053;-39
2023/12/15 11:12:28;;;;;;;12.00;7.88;;;;;;;18.03;51.19;103593.34;5025086;28;20053;-43
2023/12/15 11:15:18;;;;;;;12.57;8.18;;;;;;;18.04;51.04;103594.22;5028712;28;20182;-37